Time;durP1;ratioP1;P1;durP2;ratioP2;P2;SDS_P1;SDS_P2;PMS_P1;PMS_P2;Temp;Humidity;BMP_temperature;BMP_pressure;BME280_temperature;BME280_humidity;BME280_pressure;Samples;Min_cycle;Max_cycle;Signal;HPM_P1;HPM_P2
2022/02/15 00:02:01;;;;;;;1.03;1.00;;;10.50;99.90;;;;;;5042977;28;20466;-76
2022/02/15 00:04:29;;;;;;;1.10;1.00;;;10.60;99.90;;;;;;5038786;28;20933;-76
2022/02/15 00:06:58;;;;;;;1.80;1.00;;;10.60;99.90;;;;;;5043075;28;20890;-76
2022/02/15 00:09:27;;;;;;;0.90;0.90;;;10.60;99.90;;;;;;5035333;28;20459;-76
2022/02/15 00:11:55;;;;;;;1.10;1.00;;;10.40;99.90;;;;;;5040389;28;20477;-77
2022/02/15 00:14:24;;;;;;;0.90;0.90;;;10.40;99.90;;;;;;5042399;28;20453;-76
2022/02/15 00:16:52;;;;;;;2.30;0.90;;;10.40;99.90;;;;;;5044953;28;20585;-77
2022/02/15 00:19:20;;;;;;;1.00;0.90;;;10.40;99.90;;;;;;5034322;28;20459;-76
2022/02/15 00:21:49;;;;;;;1.10;0.70;;;10.30;99.90;;;;;;5043446;28;20581;-76
2022/02/15 00:24:17;;;;;;;0.73;0.73;;;10.40;99.90;;;;;;5042277;28;20454;-76
2022/02/15 00:26:48;;;;;;;0.87;0.87;;;10.20;99.90;;;;;;5044929;28;20974;-76
2022/02/15 00:29:16;;;;;;;1.47;0.97;;;10.10;99.90;;;;;;5035823;28;20503;-76
2022/02/15 00:31:44;;;;;;;5.33;0.90;;;10.00;99.90;;;;;;5047527;28;20505;-76
2022/02/15 00:34:13;;;;;;;1.07;0.83;;;9.80;99.90;;;;;;5043796;28;21291;-75
2022/02/15 00:36:41;;;;;;;0.70;0.70;;;9.70;99.90;;;;;;5042916;28;20477;-76
2022/02/15 00:39:09;;;;;;;0.63;0.63;;;9.60;99.90;;;;;;5040702;28;20856;-76
2022/02/15 00:41:37;;;;;;;0.90;0.70;;;9.70;99.90;;;;;;5047610;28;20526;-76
2022/02/15 00:44:08;;;;;;;0.90;0.90;;;9.60;99.90;;;;;;5040296;28;20452;-75
2022/02/15 00:46:36;;;;;;;1.43;1.00;;;9.70;99.90;;;;;;5040386;28;20636;-75
2022/02/15 00:49:04;;;;;;;1.07;0.80;;;9.60;99.90;;;;;;5040367;28;20459;-76
2022/02/15 00:51:32;;;;;;;1.93;0.90;;;9.50;99.90;;;;;;5038634;28;21013;-75
2022/02/15 00:54:01;;;;;;;1.10;0.83;;;9.30;99.90;;;;;;5039822;28;20829;-75
2022/02/15 00:56:29;;;;;;;0.70;0.70;;;9.00;99.90;;;;;;5040533;28;20477;-76
2022/02/15 00:58:57;;;;;;;1.30;0.80;;;9.20;99.90;;;;;;5042789;28;20463;-76
2022/02/15 01:01:27;;;;;;;1.40;1.00;;;9.20;99.90;;;;;;5031144;28;20898;-76
2022/02/15 01:03:55;;;;;;;1.10;0.90;;;9.40;99.90;;;;;;5041002;28;20499;-75
2022/02/15 01:06:23;;;;;;;1.40;1.30;;;9.50;99.90;;;;;;5040721;28;20889;-75
2022/02/15 01:08:51;;;;;;;1.13;0.80;;;9.40;99.90;;;;;;5047972;28;20454;-75
2022/02/15 01:11:19;;;;;;;1.53;0.87;;;9.50;99.90;;;;;;5046527;28;20472;-76
2022/02/15 01:13:48;;;;;;;0.90;0.90;;;9.70;99.90;;;;;;5046202;28;20958;-76
2022/02/15 01:16:16;;;;;;;1.20;1.20;;;9.70;99.90;;;;;;5039951;28;20467;-75
2022/02/15 01:18:45;;;;;;;1.30;1.20;;;9.50;99.90;;;;;;5047189;28;20536;-76
2022/02/15 01:21:13;;;;;;;1.10;1.00;;;9.40;99.90;;;;;;5036668;28;21005;-76
2022/02/15 01:23:43;;;;;;;2.30;1.03;;;9.50;99.90;;;;;;5047123;28;20899;-76
2022/02/15 01:26:11;;;;;;;1.10;1.00;;;9.40;99.90;;;;;;5044904;28;20463;-76
2022/02/15 01:28:40;;;;;;;1.10;0.97;;;9.50;99.90;;;;;;5047108;28;20863;-76
2022/02/15 01:31:09;;;;;;;1.13;0.90;;;9.60;99.90;;;;;;5043031;28;20567;-77
2022/02/15 01:33:37;;;;;;;0.90;0.90;;;9.40;99.90;;;;;;5041881;28;21086;-76
2022/02/15 01:36:07;;;;;;;0.80;0.80;;;9.30;99.90;;;;;;5035371;28;20486;-76
2022/02/15 01:38:35;;;;;;;2.80;1.00;;;9.40;99.90;;;;;;5042206;28;20451;-76
2022/02/15 01:41:06;;;;;;;1.10;1.00;;;9.50;99.90;;;;;;5036917;28;20453;-75
2022/02/15 01:43:39;;;;;;;1.03;0.93;;;9.50;99.90;;;;;;5037948;28;20201;-76
2022/02/15 01:46:08;;;;;;;1.00;0.80;;;9.60;99.90;;;;;;5039973;28;20477;-75
2022/02/15 01:48:37;;;;;;;0.80;0.80;;;9.70;99.90;;;;;;5040860;28;20447;-75
2022/02/15 01:51:06;;;;;;;2.40;0.80;;;9.70;99.90;;;;;;5043146;28;20475;-75
2022/02/15 01:53:35;;;;;;;0.90;0.90;;;9.60;99.90;;;;;;5037243;28;20518;-75
2022/02/15 01:56:05;;;;;;;2.37;1.00;;;9.70;99.90;;;;;;5043230;28;20479;-75
2022/02/15 01:58:34;;;;;;;1.00;0.90;;;9.80;99.90;;;;;;5038364;28;20515;-76
2022/02/15 02:01:02;;;;;;;0.90;0.80;;;9.80;99.90;;;;;;5042610;28;20485;-76
2022/02/15 02:03:30;;;;;;;0.87;0.80;;;9.80;99.90;;;;;;5038528;28;20998;-76
2022/02/15 02:05:58;;;;;;;0.80;0.80;;;9.70;99.90;;;;;;5038696;28;20813;-76
2022/02/15 02:08:30;;;;;;;2.13;0.90;;;9.60;99.90;;;;;;5037058;28;20495;-76
2022/02/15 02:11:00;;;;;;;1.80;0.83;;;9.70;99.90;;;;;;5038328;28;20477;-77
2022/02/15 02:13:29;;;;;;;0.83;0.83;;;9.80;99.90;;;;;;5044015;28;20860;-76
2022/02/15 02:15:57;;;;;;;3.40;1.10;;;9.70;99.90;;;;;;5044098;28;20482;-75
2022/02/15 02:18:26;;;;;;;1.30;0.97;;;9.60;99.90;;;;;;5045939;28;20979;-76
2022/02/15 02:20:54;;;;;;;1.00;0.90;;;9.60;99.90;;;;;;5042750;28;20482;-75
2022/02/15 02:23:24;;;;;;;0.90;0.90;;;9.60;99.90;;;;;;5045761;28;20490;-75
2022/02/15 02:25:52;;;;;;;1.17;1.03;;;9.50;99.90;;;;;;5053973;28;20469;-76
2022/02/15 02:28:21;;;;;;;1.30;1.20;;;9.50;99.90;;;;;;5045908;28;20454;-76
2022/02/15 02:30:50;;;;;;;0.87;0.87;;;9.70;99.90;;;;;;5042084;28;20518;-76
2022/02/15 02:33:18;;;;;;;1.00;0.90;;;9.40;99.90;;;;;;5047596;28;20465;-76
2022/02/15 02:35:48;;;;;;;1.60;0.90;;;9.30;99.90;;;;;;5041976;28;20450;-76
2022/02/15 02:38:16;;;;;;;0.90;0.90;;;9.40;99.90;;;;;;5046657;28;20518;-76
2022/02/15 02:40:47;;;;;;;1.20;1.00;;;9.50;99.90;;;;;;5042936;28;20844;-76
2022/02/15 02:43:15;;;;;;;2.20;0.90;;;9.60;99.90;;;;;;5046183;28;20470;-75
2022/02/15 02:45:43;;;;;;;0.93;0.80;;;9.60;99.90;;;;;;5041391;28;20463;-76
2022/02/15 02:48:11;;;;;;;1.33;1.10;;;9.70;99.90;;;;;;5047221;28;20467;-76
2022/02/15 02:50:39;;;;;;;1.33;0.90;;;9.80;99.90;;;;;;5040639;28;20492;-76
2022/02/15 02:53:10;;;;;;;1.43;1.00;;;9.80;99.90;;;;;;5045194;28;20464;-76
2022/02/15 02:55:38;;;;;;;1.30;1.20;;;9.90;99.90;;;;;;5045055;28;20512;-76
2022/02/15 02:58:08;;;;;;;3.07;0.80;;;9.90;99.90;;;;;;5045305;28;20484;-76
2022/02/15 03:00:37;;;;;;;1.03;0.93;;;9.90;99.90;;;;;;5039585;28;20483;-76
2022/02/15 03:03:07;;;;;;;0.97;0.97;;;9.90;99.90;;;;;;5043785;28;20454;-77
2022/02/15 03:05:36;;;;;;;1.63;1.03;;;9.90;99.90;;;;;;5041978;28;20451;-76
2022/02/15 03:08:04;;;;;;;0.80;0.80;;;9.80;99.90;;;;;;5044116;28;20453;-76
2022/02/15 03:10:33;;;;;;;1.67;0.90;;;9.90;99.90;;;;;;5043721;28;20474;-76
2022/02/15 03:13:01;;;;;;;1.60;1.00;;;10.00;99.90;;;;;;5044515;28;20454;-76
2022/02/15 03:15:30;;;;;;;1.70;1.00;;;9.90;99.90;;;;;;5043704;28;20463;-76
2022/02/15 03:17:58;;;;;;;3.13;1.00;;;9.90;99.90;;;;;;5044840;28;20489;-76
2022/02/15 03:20:29;;;;;;;1.30;1.03;;;9.70;99.90;;;;;;5041917;28;20485;-77
2022/02/15 03:22:58;;;;;;;1.27;0.80;;;9.70;99.90;;;;;;5044835;28;20444;-76
2022/02/15 03:25:26;;;;;;;0.70;0.70;;;9.80;99.90;;;;;;5038576;28;21194;-76
2022/02/15 03:27:54;;;;;;;1.10;1.00;;;9.40;99.90;;;;;;5044465;28;20458;-75
2022/02/15 03:30:22;;;;;;;3.13;0.90;;;9.70;99.90;;;;;;5040258;28;21044;-76
2022/02/15 03:32:52;;;;;;;1.67;0.80;;;9.70;99.90;;;;;;5039902;28;20461;-76
2022/02/15 03:35:20;;;;;;;1.23;0.70;;;9.70;99.90;;;;;;5046416;28;20470;-76
2022/02/15 03:37:48;;;;;;;0.63;0.63;;;9.80;99.90;;;;;;5044066;28;20479;-75
2022/02/15 03:40:17;;;;;;;1.60;0.93;;;9.70;99.90;;;;;;5046250;28;20484;-76
2022/02/15 03:45:31;;;;;;;0.93;0.70;;;9.90;99.90;;;;;;5040039;28;20470;-76
2022/02/15 03:48:00;;;;;;;2.37;0.97;;;10.00;99.90;;;;;;5042745;28;20476;-75
2022/02/15 03:50:29;;;;;;;2.00;0.80;;;10.00;99.90;;;;;;5040476;28;20505;-76
2022/02/15 03:52:57;;;;;;;1.33;0.70;;;9.70;99.90;;;;;;5045141;28;20446;-77
2022/02/15 03:55:26;;;;;;;1.43;0.80;;;9.70;99.90;;;;;;5041312;28;20454;-76
2022/02/15 03:57:54;;;;;;;1.00;1.00;;;9.70;99.90;;;;;;5044658;28;20483;-76
2022/02/15 04:00:22;;;;;;;1.13;1.00;;;9.60;99.90;;;;;;5045192;28;20474;-76
2022/02/15 04:02:50;;;;;;;1.60;1.50;;;9.60;99.90;;;;;;5042331;28;21025;-76
2022/02/15 04:05:20;;;;;;;1.23;0.80;;;9.70;99.90;;;;;;5043110;28;20475;-76
2022/02/15 04:07:48;;;;;;;0.73;0.73;;;9.70;99.90;;;;;;5042881;28;20445;-76
2022/02/15 04:10:17;;;;;;;0.63;0.63;;;9.60;99.90;;;;;;5041156;28;20476;-76
2022/02/15 04:12:46;;;;;;;1.17;0.80;;;9.70;99.90;;;;;;5042740;28;20477;-76
2022/02/15 04:15:15;;;;;;;0.97;0.90;;;9.70;99.90;;;;;;5044025;28;20550;-75
2022/02/15 04:17:43;;;;;;;0.80;0.80;;;9.80;99.90;;;;;;5040589;28;20512;-75
2022/02/15 04:20:13;;;;;;;1.50;1.07;;;9.90;99.90;;;;;;5041694;28;20488;-76
2022/02/15 04:22:43;;;;;;;1.10;1.00;;;9.80;99.90;;;;;;5043971;28;20457;-75
2022/02/15 04:25:12;;;;;;;2.27;1.00;;;9.90;99.90;;;;;;5042010;28;20552;-76
2022/02/15 04:27:40;;;;;;;1.20;0.90;;;9.90;99.90;;;;;;5041606;28;20438;-75
2022/02/15 04:30:11;;;;;;;2.60;1.10;;;9.80;99.90;;;;;;5041264;28;20496;-76
2022/02/15 04:32:39;;;;;;;1.10;1.00;;;9.80;99.90;;;;;;5047415;28;20493;-75
2022/02/15 04:35:08;;;;;;;1.50;1.00;;;9.80;99.90;;;;;;5047944;28;20474;-75
2022/02/15 04:37:36;;;;;;;1.33;1.03;;;9.60;99.90;;;;;;5045778;28;20482;-75
2022/02/15 04:40:07;;;;;;;1.50;1.20;;;9.90;99.90;;;;;;5041584;28;20467;-76
2022/02/15 04:42:35;;;;;;;2.20;1.20;;;9.60;99.90;;;;;;5042536;28;20548;-77
2022/02/15 04:45:05;;;;;;;1.33;0.80;;;9.60;99.90;;;;;;5041778;28;20483;-76
2022/02/15 04:47:33;;;;;;;1.70;1.00;;;9.40;99.90;;;;;;5041238;28;20458;-76
2022/02/15 04:50:01;;;;;;;2.70;1.97;;;9.20;99.90;;;;;;5040129;28;20894;-76
2022/02/15 04:52:29;;;;;;;3.80;1.20;;;9.30;99.90;;;;;;5044875;28;20834;-76
2022/02/15 04:54:57;;;;;;;2.33;1.00;;;9.40;99.90;;;;;;5042275;28;20807;-75
2022/02/15 04:57:27;;;;;;;0.90;0.90;;;9.40;99.90;;;;;;5040276;28;20498;-73
2022/02/15 04:59:55;;;;;;;1.53;0.90;;;9.50;99.90;;;;;;5040567;28;20458;-75
2022/02/15 05:02:23;;;;;;;3.20;1.20;;;9.50;99.90;;;;;;5039533;28;20970;-76
2022/02/15 05:04:53;;;;;;;1.03;0.93;;;9.60;99.90;;;;;;5042109;28;20836;-75
2022/02/15 05:07:23;;;;;;;1.77;1.30;;;9.50;99.90;;;;;;5042746;28;20521;-75
2022/02/15 05:09:51;;;;;;;1.73;0.90;;;9.30;99.90;;;;;;5042447;28;20455;-74
2022/02/15 05:12:19;;;;;;;1.30;1.20;;;9.40;99.90;;;;;;5043040;28;20827;-74
2022/02/15 05:14:49;;;;;;;1.10;1.00;;;9.60;99.90;;;;;;5042577;28;20465;-77
2022/02/15 05:17:18;;;;;;;1.60;1.23;;;9.40;99.90;;;;;;5040499;28;20545;-76
2022/02/15 05:19:46;;;;;;;2.23;1.30;;;9.00;99.90;;;;;;5040573;28;20457;-75
2022/02/15 05:22:14;;;;;;;1.83;0.97;;;8.90;99.90;;;;;;5041302;28;20458;-76
2022/02/15 05:24:43;;;;;;;1.67;0.90;;;9.00;99.90;;;;;;5043098;28;20665;-75
2022/02/15 05:27:11;;;;;;;1.57;1.00;;;8.90;99.90;;;;;;5040489;28;20471;-76
2022/02/15 05:29:39;;;;;;;1.10;0.90;;;8.90;99.90;;;;;;5038171;28;20529;-75
2022/02/15 05:32:10;;;;;;;1.70;1.07;;;9.10;99.90;;;;;;5040432;28;20450;-75
2022/02/15 05:34:38;;;;;;;1.80;1.30;;;9.00;99.90;;;;;;5038922;28;21347;-76
2022/02/15 05:37:06;;;;;;;2.13;1.23;;;9.10;99.90;;;;;;5044338;28;20566;-76
2022/02/15 05:39:35;;;;;;;3.30;1.17;;;9.10;99.90;;;;;;5041857;28;20504;-75
2022/02/15 05:42:03;;;;;;;3.93;1.30;;;9.00;99.90;;;;;;5042276;28;20525;-76
2022/02/15 05:44:32;;;;;;;1.20;1.10;;;9.10;99.90;;;;;;5038384;28;20541;-77
2022/02/15 05:47:00;;;;;;;1.20;1.10;;;9.30;99.90;;;;;;5036192;28;20549;-76
2022/02/15 05:49:29;;;;;;;3.83;1.00;;;9.30;99.90;;;;;;5043699;28;20469;-76
2022/02/15 05:51:58;;;;;;;1.23;1.13;;;9.40;99.90;;;;;;5039726;28;20837;-77
2022/02/15 05:54:26;;;;;;;1.10;1.00;;;9.60;99.90;;;;;;5037356;28;21087;-76
2022/02/15 05:56:54;;;;;;;1.70;1.23;;;9.60;99.90;;;;;;5038395;28;20466;-76
2022/02/15 05:59:22;;;;;;;1.10;1.00;;;9.60;99.90;;;;;;5040082;28;20488;-77
2022/02/15 06:01:50;;;;;;;1.23;0.90;;;9.70;99.90;;;;;;5039769;28;20921;-76
2022/02/15 06:04:19;;;;;;;0.80;0.80;;;9.70;99.90;;;;;;5038816;28;20458;-75
2022/02/15 06:06:48;;;;;;;4.13;1.17;;;9.80;99.90;;;;;;5036009;28;20460;-76
2022/02/15 06:09:16;;;;;;;2.47;1.30;;;10.20;99.90;;;;;;5036114;28;20461;-76
2022/02/15 06:11:44;;;;;;;3.30;1.10;;;9.80;99.90;;;;;;5042252;28;20479;-77
2022/02/15 06:14:13;;;;;;;1.58;1.48;;;9.80;99.90;;;;;;5033213;28;20962;-76
2022/02/15 06:16:41;;;;;;;1.43;1.10;;;9.80;99.90;;;;;;5033715;28;20215;-76
2022/02/15 06:19:09;;;;;;;3.70;1.30;;;9.80;99.90;;;;;;5034498;28;20497;-76
2022/02/15 06:21:37;;;;;;;1.03;1.00;;;9.80;99.90;;;;;;5042065;28;20474;-76
2022/02/15 06:24:08;;;;;;;1.00;0.90;;;9.70;99.90;;;;;;5041979;28;20451;-76
2022/02/15 06:27:01;;;;;;;2.43;1.10;;;9.70;99.90;;;;;;5038838;28;20762;-76
2022/02/15 06:29:30;;;;;;;2.23;1.30;;;9.70;99.90;;;;;;5041448;28;20827;-76
2022/02/15 06:31:59;;;;;;;1.87;1.30;;;9.80;99.90;;;;;;5043255;28;20479;-76
2022/02/15 06:34:27;;;;;;;2.10;1.50;;;9.90;99.90;;;;;;5037963;28;20465;-76
2022/02/15 06:36:56;;;;;;;4.93;2.60;;;10.00;99.90;;;;;;5039810;28;20951;-76
2022/02/15 06:39:25;;;;;;;3.50;2.00;;;10.00;99.90;;;;;;5041311;28;20463;-76
2022/02/15 06:41:53;;;;;;;1.90;1.70;;;9.90;99.90;;;;;;5041671;28;21069;-76
2022/02/15 06:44:22;;;;;;;2.87;2.10;;;9.90;99.90;;;;;;5042104;28;20449;-76
2022/02/15 06:46:50;;;;;;;2.00;1.63;;;9.80;99.90;;;;;;5041809;28;20452;-76
2022/02/15 06:49:18;;;;;;;2.70;1.40;;;9.60;99.90;;;;;;5040956;28;20542;-78
2022/02/15 06:51:47;;;;;;;6.27;2.13;;;9.60;99.90;;;;;;5039100;28;20846;-76
2022/02/15 06:54:16;;;;;;;2.10;1.43;;;9.60;99.90;;;;;;5037771;28;20467;-76
2022/02/15 06:56:45;;;;;;;2.60;1.37;;;9.70;99.90;;;;;;5042635;28;20462;-76
2022/02/15 06:59:14;;;;;;;5.60;1.43;;;9.60;99.90;;;;;;5043170;28;20487;-76
2022/02/15 07:01:43;;;;;;;4.20;1.50;;;9.70;99.90;;;;;;5043457;28;20474;-76
2022/02/15 07:04:12;;;;;;;1.30;1.13;;;9.80;99.90;;;;;;5042300;28;20452;-76
2022/02/15 07:06:40;;;;;;;2.00;1.40;;;9.80;99.90;;;;;;5043604;28;20463;-75
2022/02/15 07:09:09;;;;;;;1.80;1.40;;;9.80;99.90;;;;;;5044216;28;20457;-77
2022/02/15 07:11:37;;;;;;;2.00;1.07;;;9.80;99.90;;;;;;5046795;28;20484;-76
2022/02/15 07:14:06;;;;;;;1.33;1.20;;;9.80;99.90;;;;;;5049736;28;20441;-77
2022/02/15 07:16:35;;;;;;;2.37;1.20;;;9.80;99.90;;;;;;5049071;28;21005;-77
2022/02/15 07:19:04;;;;;;;1.13;1.00;;;9.70;99.90;;;;;;5041237;28;20487;-76
2022/02/15 07:21:32;;;;;;;1.60;1.30;;;9.70;99.90;;;;;;5041651;28;20487;-76
2022/02/15 07:24:01;;;;;;;1.33;0.90;;;9.70;99.90;;;;;;5047403;28;20451;-76
2022/02/15 07:26:29;;;;;;;1.40;0.90;;;9.50;99.90;;;;;;5046409;28;20451;-76
2022/02/15 07:28:58;;;;;;;2.10;1.40;;;9.60;99.90;;;;;;5046172;28;20455;-76
2022/02/15 07:31:27;;;;;;;1.60;1.10;;;9.60;99.90;;;;;;5045449;28;20246;-77
2022/02/15 07:33:56;;;;;;;1.00;0.90;;;9.70;99.90;;;;;;5041490;28;20458;-76
2022/02/15 07:36:24;;;;;;;1.27;0.90;;;9.60;99.90;;;;;;5036391;28;20443;-76
2022/02/15 07:38:52;;;;;;;1.50;1.10;;;9.60;99.90;;;;;;5042906;28;20506;-76
2022/02/15 07:41:20;;;;;;;2.63;1.20;;;9.50;99.90;;;;;;5045303;28;20476;-76
2022/02/15 07:43:48;;;;;;;3.43;1.20;;;9.60;99.90;;;;;;5044158;28;20461;-76
2022/02/15 07:46:17;;;;;;;1.50;1.17;;;9.70;99.90;;;;;;5042766;28;20460;-76
2022/02/15 07:48:46;;;;;;;1.10;1.00;;;9.70;99.90;;;;;;5036205;28;20458;-76
2022/02/15 07:51:15;;;;;;;1.90;1.27;;;9.70;99.90;;;;;;5037790;28;20488;-76
2022/02/15 07:53:43;;;;;;;2.47;1.30;;;9.60;99.90;;;;;;5043252;28;20454;-76
2022/02/15 07:56:11;;;;;;;1.60;1.13;;;9.50;99.90;;;;;;5043725;28;20459;-76
2022/02/15 07:58:40;;;;;;;1.33;0.93;;;9.50;99.90;;;;;;5044777;28;20462;-76
2022/02/15 08:01:08;;;;;;;0.80;0.80;;;9.60;99.90;;;;;;5043578;28;20848;-75
2022/02/15 08:03:38;;;;;;;1.00;0.90;;;9.50;99.90;;;;;;5043016;28;21277;-76
2022/02/15 08:06:08;;;;;;;0.83;0.80;;;9.50;99.90;;;;;;5042768;28;20934;-76
2022/02/15 08:08:37;;;;;;;1.63;0.70;;;9.40;99.90;;;;;;5042370;28;20473;-76
2022/02/15 08:11:06;;;;;;;0.90;0.80;;;9.50;99.90;;;;;;5042891;28;20494;-76
2022/02/15 08:13:39;;;;;;;0.90;0.90;;;9.50;99.90;;;;;;5042832;28;20480;-76
2022/02/15 08:16:08;;;;;;;1.30;0.93;;;9.30;99.90;;;;;;5047715;28;20455;-76
2022/02/15 08:18:40;;;;;;;1.10;1.00;;;9.20;99.90;;;;;;5039028;28;20460;-76
2022/02/15 08:21:10;;;;;;;1.13;0.80;;;9.10;99.90;;;;;;5035147;28;20228;-76
2022/02/15 08:23:59;;;;;;;0.73;0.70;;;9.10;99.90;;;;;;5042171;28;20473;-77
2022/02/15 08:26:27;;;;;;;1.87;0.60;;;9.40;99.90;;;;;;5043630;28;20464;-76
2022/02/15 08:28:56;;;;;;;0.90;0.70;;;9.30;99.90;;;;;;5040400;28;20461;-76
2022/02/15 08:31:24;;;;;;;0.80;0.80;;;9.30;99.90;;;;;;5041500;28;20461;-77
2022/02/15 08:33:52;;;;;;;1.70;0.70;;;9.10;99.90;;;;;;5043151;28;21294;-75
2022/02/15 08:36:22;;;;;;;0.80;0.60;;;9.30;99.90;;;;;;5044817;28;20490;-77
2022/02/15 08:38:51;;;;;;;1.17;0.83;;;9.60;99.90;;;;;;5040005;28;20469;-76
2022/02/15 08:41:19;;;;;;;1.37;0.70;;;9.70;99.90;;;;;;5049529;28;20534;-76
2022/02/15 08:43:47;;;;;;;4.67;1.10;;;9.70;99.90;;;;;;5036445;28;20572;-76
2022/02/15 08:46:16;;;;;;;1.03;0.87;;;9.80;99.90;;;;;;5047559;28;20462;-77
2022/02/15 08:48:45;;;;;;;3.13;1.20;;;9.80;99.90;;;;;;5052135;28;20453;-76
2022/02/15 08:51:14;;;;;;;0.60;0.60;;;9.80;99.90;;;;;;5042720;28;20553;-77
2022/02/15 08:53:49;;;;;;;1.03;0.70;;;9.90;99.90;;;;;;5038587;28;20466;-76
2022/02/15 08:56:17;;;;;;;1.10;1.00;;;9.90;99.90;;;;;;5043138;28;20462;-77
2022/02/15 08:58:47;;;;;;;1.57;1.00;;;10.20;99.90;;;;;;5041749;28;20539;-77
2022/02/15 09:01:15;;;;;;;1.20;0.93;;;10.10;99.90;;;;;;5040431;28;20591;-77
2022/02/15 09:03:43;;;;;;;1.43;0.80;;;10.20;99.90;;;;;;5042794;28;20522;-77
2022/02/15 09:06:12;;;;;;;1.03;0.90;;;10.20;99.90;;;;;;5043133;28;20451;-77
2022/02/15 09:08:40;;;;;;;0.70;0.70;;;10.20;99.90;;;;;;5049422;28;20986;-77
2022/02/15 09:11:10;;;;;;;1.27;0.60;;;10.30;99.90;;;;;;5042026;28;20478;-78
2022/02/15 09:13:38;;;;;;;0.77;0.77;;;10.30;99.90;;;;;;5042144;28;20454;-77
2022/02/15 09:16:06;;;;;;;0.67;0.60;;;10.50;99.90;;;;;;5040300;28;20466;-77
2022/02/15 09:18:34;;;;;;;0.80;0.80;;;10.50;99.90;;;;;;5041763;28;20480;-77
2022/02/15 09:21:03;;;;;;;0.93;0.83;;;10.40;99.90;;;;;;5041505;28;20486;-77
2022/02/15 09:23:31;;;;;;;0.90;0.90;;;10.30;99.90;;;;;;5036960;28;20451;-76
2022/02/15 09:25:59;;;;;;;3.27;0.97;;;10.40;99.90;;;;;;5041737;28;20201;-76
2022/02/15 09:28:29;;;;;;;1.37;1.00;;;10.60;99.90;;;;;;5042247;28;20451;-77
2022/02/15 09:30:58;;;;;;;0.97;0.97;;;10.80;99.90;;;;;;5041758;28;20491;-77
2022/02/15 09:33:26;;;;;;;0.63;0.63;;;10.90;99.90;;;;;;5042815;28;20464;-77
2022/02/15 09:36:15;;;;;;;0.90;0.77;;;11.00;99.90;;;;;;5036042;28;20465;-76
2022/02/15 09:38:43;;;;;;;1.00;0.70;;;11.00;99.90;;;;;;5044450;28;20464;-76
2022/02/15 09:41:11;;;;;;;0.77;0.70;;;11.10;99.90;;;;;;5041407;28;20505;-76
2022/02/15 09:43:41;;;;;;;1.03;0.80;;;11.10;99.90;;;;;;5042987;28;20444;-76
2022/02/15 09:46:13;;;;;;;4.00;0.83;;;10.90;99.90;;;;;;5045722;28;20921;-76
2022/02/15 09:48:42;;;;;;;1.00;0.90;;;10.90;99.90;;;;;;5044978;28;20455;-78
2022/02/15 09:51:13;;;;;;;0.70;0.70;;;11.00;99.90;;;;;;5038808;28;22209;-77
2022/02/15 09:53:42;;;;;;;1.67;0.90;;;11.10;99.90;;;;;;5044276;28;20463;-76
2022/02/15 09:56:10;;;;;;;0.70;0.70;;;11.20;99.90;;;;;;5040270;28;20462;-77
2022/02/15 09:58:38;;;;;;;0.80;0.70;;;11.40;99.90;;;;;;5043029;28;20951;-77
2022/02/15 10:01:11;;;;;;;1.70;0.90;;;11.40;99.90;;;;;;5042930;28;21039;-77
2022/02/15 10:03:49;;;;;;;0.80;0.80;;;11.60;99.90;;;;;;5042803;28;20444;-77
2022/02/15 10:06:17;;;;;;;1.00;0.90;;;11.90;99.90;;;;;;5042200;28;20466;-76
2022/02/15 10:08:46;;;;;;;1.00;0.90;;;12.30;99.90;;;;;;5044562;28;20992;-77
2022/02/15 10:11:15;;;;;;;1.70;1.08;;;12.60;99.90;;;;;;5041714;28;20441;-77
2022/02/15 10:13:45;;;;;;;0.90;0.90;;;12.80;99.90;;;;;;5044113;28;20936;-78
2022/02/15 10:16:15;;;;;;;5.13;0.90;;;12.80;99.90;;;;;;5057421;28;20457;-77
2022/02/15 10:18:46;;;;;;;1.20;0.70;;;12.60;99.90;;;;;;5045031;28;20458;-76
2022/02/15 10:21:17;;;;;;;5.37;0.70;;;12.50;99.90;;;;;;5036792;28;20488;-77
2022/02/15 10:23:51;;;;;;;0.70;0.70;;;12.30;99.90;;;;;;5042129;28;20457;-77
2022/02/15 10:26:19;;;;;;;0.60;0.60;;;12.30;99.90;;;;;;5047275;28;20472;-76
2022/02/15 10:28:48;;;;;;;0.70;0.70;;;12.20;99.90;;;;;;5045756;28;20526;-77
2022/02/15 10:31:39;;;;;;;1.83;0.77;;;12.10;99.90;;;;;;5043154;28;20607;-77
2022/02/15 10:34:07;;;;;;;1.40;0.80;;;12.10;99.90;;;;;;5043278;28;20979;-77
2022/02/15 10:36:35;;;;;;;0.70;0.67;;;12.10;99.90;;;;;;5046645;28;20448;-76
2022/02/15 10:39:04;;;;;;;0.70;0.70;;;12.00;99.90;;;;;;5045043;28;20448;-76
2022/02/15 10:41:34;;;;;;;0.80;0.77;;;11.80;99.90;;;;;;5040923;28;20493;-78
2022/02/15 10:44:02;;;;;;;1.30;0.70;;;11.60;99.90;;;;;;5042344;28;20464;-77
2022/02/15 10:46:33;;;;;;;1.27;1.17;;;11.50;99.90;;;;;;5042528;28;21000;-76
2022/02/15 10:49:01;;;;;;;0.90;0.80;;;11.50;99.90;;;;;;5045212;28;20812;-77
2022/02/15 10:51:29;;;;;;;0.80;0.60;;;11.50;99.90;;;;;;5042000;28;20224;-77
2022/02/15 10:54:00;;;;;;;1.90;0.80;;;11.60;99.90;;;;;;5044457;28;20453;-77
2022/02/15 10:56:33;;;;;;;2.00;0.77;;;11.50;99.90;;;;;;5046502;28;20987;-77
2022/02/15 10:59:04;;;;;;;0.77;0.63;;;11.40;99.90;;;;;;5045067;28;20635;-77
2022/02/15 11:01:35;;;;;;;3.00;0.70;;;11.40;99.90;;;;;;5050302;28;20515;-78
2022/02/15 11:04:04;;;;;;;1.57;0.60;;;11.40;99.90;;;;;;5050170;28;20976;-77
2022/02/15 11:06:32;;;;;;;0.83;0.70;;;11.40;99.90;;;;;;5042520;28;20462;-77
2022/02/15 11:09:04;;;;;;;1.00;0.80;;;11.50;99.90;;;;;;5046910;28;20459;-77
2022/02/15 11:11:47;;;;;;;2.77;0.90;;;11.40;99.90;;;;;;5047068;28;20492;-77
2022/02/15 11:14:16;;;;;;;2.97;0.70;;;11.40;99.90;;;;;;5045674;28;20806;-77
2022/02/15 11:16:51;;;;;;;0.80;0.80;;;11.30;99.90;;;;;;5047033;28;20482;-78
2022/02/15 11:19:22;;;;;;;1.10;1.00;;;11.20;99.90;;;;;;5043401;28;20455;-79
2022/02/15 11:21:54;;;;;;;1.17;0.70;;;11.20;99.90;;;;;;5043704;28;20463;-78
2022/02/15 11:24:23;;;;;;;0.97;0.60;;;11.30;99.90;;;;;;5045774;28;20467;-77
2022/02/15 11:26:51;;;;;;;1.47;1.17;;;11.30;99.90;;;;;;5043406;28;20959;-77
2022/02/15 11:29:21;;;;;;;1.50;0.70;;;11.30;99.90;;;;;;5037903;28;20459;-77
2022/02/15 11:31:52;;;;;;;1.97;0.80;;;11.40;99.90;;;;;;5046740;28;20468;-77
2022/02/15 11:34:30;;;;;;;1.43;1.00;;;11.40;99.90;;;;;;5042336;28;20455;-78
2022/02/15 11:37:01;;;;;;;0.80;0.80;;;11.40;99.90;;;;;;5040029;28;20464;-78
2022/02/15 11:39:41;;;;;;;1.57;0.80;;;11.40;99.90;;;;;;5042320;28;20455;-78
2022/02/15 11:42:17;;;;;;;1.10;1.00;;;11.40;99.90;;;;;;5041449;28;20453;-78
2022/02/15 11:44:46;;;;;;;0.80;0.70;;;11.40;99.90;;;;;;5041395;28;20208;-77
2022/02/15 11:47:19;;;;;;;1.87;0.70;;;11.40;99.90;;;;;;5046196;28;20457;-77
2022/02/15 11:49:51;;;;;;;2.80;0.60;;;11.40;99.90;;;;;;5049821;28;20455;-77
2022/02/15 11:52:20;;;;;;;0.87;0.80;;;11.40;99.90;;;;;;5041063;28;20489;-77
2022/02/15 11:54:48;;;;;;;1.10;0.73;;;11.40;99.90;;;;;;5037962;28;20455;-77
2022/02/15 11:57:17;;;;;;;0.67;0.67;;;11.40;99.90;;;;;;5045285;28;21190;-77
2022/02/15 11:59:51;;;;;;;0.70;0.70;;;11.50;99.90;;;;;;5040344;28;20455;-78
2022/02/15 12:02:21;;;;;;;0.77;0.77;;;11.40;99.90;;;;;;5038533;28;20490;-77
2022/02/15 12:04:54;;;;;;;0.80;0.80;;;11.30;99.90;;;;;;5046290;28;20484;-78
2022/02/15 12:07:26;;;;;;;0.70;0.70;;;11.40;99.90;;;;;;5042328;28;20467;-76
2022/02/15 12:09:56;;;;;;;0.97;0.87;;;11.50;99.90;;;;;;5040348;28;20549;-75
2022/02/15 12:12:30;;;;;;;0.87;0.87;;;11.70;99.90;;;;;;5043457;28;20555;-76
2022/02/15 12:15:00;;;;;;;0.80;0.70;;;11.80;99.90;;;;;;5040568;28;20685;-76
2022/02/15 12:17:30;;;;;;;1.40;1.10;;;11.90;99.90;;;;;;5048486;28;20471;-76
2022/02/15 12:20:16;;;;;;;1.67;0.80;;;12.00;99.90;;;;;;5035173;28;20472;-76
2022/02/15 12:22:48;;;;;;;1.53;0.83;;;12.00;99.90;;;;;;5047714;28;20464;-76
2022/02/15 12:25:16;;;;;;;1.57;1.00;;;12.00;99.90;;;;;;5036022;28;20462;-77
2022/02/15 12:27:46;;;;;;;1.40;1.17;;;12.00;99.90;;;;;;5049380;28;20501;-76
2022/02/15 12:30:17;;;;;;;1.47;0.87;;;11.90;99.90;;;;;;5048959;28;20491;-77
2022/02/15 12:32:49;;;;;;;0.80;0.80;;;11.90;99.90;;;;;;5048567;28;20477;-77
2022/02/15 12:35:25;;;;;;;1.37;0.80;;;11.80;99.90;;;;;;5036349;28;20462;-76
2022/02/15 12:37:56;;;;;;;1.10;1.00;;;11.80;99.90;;;;;;5038349;28;20482;-76
2022/02/15 12:40:25;;;;;;;1.37;1.27;;;11.80;99.90;;;;;;5042778;28;21016;-77
2022/02/15 12:42:54;;;;;;;1.00;0.90;;;11.70;99.90;;;;;;5051006;28;20499;-77
2022/02/15 12:45:22;;;;;;;2.47;1.03;;;11.80;99.90;;;;;;5041208;28;22662;-77
2022/02/15 12:47:52;;;;;;;1.53;1.07;;;11.70;99.90;;;;;;5043634;28;20497;-78
2022/02/15 12:50:21;;;;;;;1.93;1.10;;;11.70;99.90;;;;;;5040952;28;20483;-79
2022/02/15 12:52:49;;;;;;;2.60;1.00;;;11.80;99.90;;;;;;5040035;28;20928;-78
2022/02/15 12:55:21;;;;;;;0.80;0.80;;;11.90;99.90;;;;;;5041497;28;20447;-78
2022/02/15 12:57:50;;;;;;;1.20;1.10;;;12.00;99.90;;;;;;5037475;28;21477;-79
2022/02/15 13:00:20;;;;;;;0.90;0.90;;;12.00;99.90;;;;;;5043193;28;20530;-79
2022/02/15 13:02:51;;;;;;;2.40;0.87;;;12.00;99.90;;;;;;5042031;28;20465;-78
2022/02/15 13:05:21;;;;;;;2.03;0.80;;;12.00;99.90;;;;;;5041027;28;20545;-79
2022/02/15 13:07:51;;;;;;;0.87;0.80;;;11.90;99.90;;;;;;5035232;28;20460;-78